Time;durP1;ratioP1;P1;durP2;ratioP2;P2;SDS_P1;SDS_P2;PMS_P1;PMS_P2;Temp;Humidity;BMP_temperature;BMP_pressure;BME280_temperature;BME280_humidity;BME280_pressure;Samples;Min_cycle;Max_cycle;Signal;HPM_P1;HPM_P2
2021/05/21 00:00:38;;;;;;;1.70;0.90;;;9.00;99.90;;;;;;5024321;28;20192;-75
2021/05/21 00:03:04;;;;;;;1.80;0.85;;;9.00;99.90;;;;;;5025350;28;20219;-75
2021/05/21 00:05:30;;;;;;;0.63;0.47;;;8.90;99.90;;;;;;5026687;28;20094;-76
2021/05/21 00:07:56;;;;;;;0.80;0.68;;;8.90;99.90;;;;;;5024966;28;20082;-75
2021/05/21 00:10:21;;;;;;;0.88;0.60;;;8.80;99.90;;;;;;5010975;28;20169;-74
2021/05/21 00:12:47;;;;;;;0.90;0.63;;;8.80;99.90;;;;;;5022759;28;20188;-75
2021/05/21 00:15:13;;;;;;;1.63;1.30;;;8.90;99.90;;;;;;5015416;28;20090;-75
2021/05/21 00:17:39;;;;;;;1.17;0.80;;;8.90;99.90;;;;;;5025937;28;20174;-75
2021/05/21 00:20:05;;;;;;;0.60;0.60;;;8.90;99.90;;;;;;5016585;28;20152;-75
2021/05/21 00:22:31;;;;;;;0.98;0.55;;;8.80;99.90;;;;;;5023018;28;20081;-75
2021/05/21 00:24:56;;;;;;;0.63;0.50;;;8.90;99.90;;;;;;5028212;28;20493;-75
2021/05/21 00:27:22;;;;;;;1.52;1.00;;;8.80;99.90;;;;;;5021138;28;20137;-75
2021/05/21 00:29:47;;;;;;;1.08;0.68;;;8.80;99.90;;;;;;5022231;28;20092;-76
2021/05/21 00:32:13;;;;;;;2.03;0.65;;;8.80;99.90;;;;;;5027147;28;20116;-75
2021/05/21 00:34:39;;;;;;;1.45;0.70;;;8.90;99.90;;;;;;5026299;28;20074;-74
2021/05/21 00:37:04;;;;;;;1.13;0.68;;;8.80;99.90;;;;;;5025530;28;20741;-75
2021/05/21 00:39:30;;;;;;;1.23;0.50;;;8.80;99.90;;;;;;5012398;28;20157;-77
2021/05/21 00:41:56;;;;;;;0.50;0.43;;;8.90;99.90;;;;;;5026958;28;20073;-75
2021/05/21 00:44:21;;;;;;;0.70;0.40;;;8.90;99.90;;;;;;5028875;28;20097;-74
2021/05/21 00:46:47;;;;;;;1.63;0.50;;;8.90;99.90;;;;;;5026041;28;20074;-77
2021/05/21 00:49:17;;;;;;;0.88;0.50;;;8.90;99.90;;;;;;5027876;28;20098;-75
2021/05/21 00:51:44;;;;;;;1.23;0.40;;;8.90;99.90;;;;;;5028162;28;20078;-76
2021/05/21 00:54:10;;;;;;;1.38;0.45;;;8.80;99.90;;;;;;5028152;28;20103;-77
2021/05/21 00:56:35;;;;;;;0.60;0.38;;;8.70;99.90;;;;;;5027553;28;20105;-77
2021/05/21 00:59:01;;;;;;;2.20;0.50;;;8.80;99.90;;;;;;5024862;28;20185;-76
2021/05/21 01:01:31;;;;;;;0.70;0.40;;;8.80;99.90;;;;;;5028748;28;20077;-76
2021/05/21 01:03:58;;;;;;;1.45;0.95;;;8.90;99.90;;;;;;5028466;28;20561;-77
2021/05/21 01:06:23;;;;;;;0.98;0.40;;;8.80;99.90;;;;;;5028155;28;20074;-74
2021/05/21 01:08:49;;;;;;;1.55;0.50;;;8.80;99.90;;;;;;5027028;28;20092;-74
2021/05/21 01:11:14;;;;;;;1.08;0.77;;;8.80;99.90;;;;;;5028454;28;20078;-77
2021/05/21 01:13:40;;;;;;;0.30;0.30;;;8.80;99.90;;;;;;5029041;28;20070;-74
2021/05/21 01:16:06;;;;;;;0.65;0.40;;;8.90;99.90;;;;;;5028470;28;20108;-76
2021/05/21 01:18:31;;;;;;;0.50;0.40;;;9.00;99.90;;;;;;5027919;28;20137;-75
2021/05/21 01:20:58;;;;;;;0.80;0.30;;;9.00;99.90;;;;;;5021352;28;20775;-75
2021/05/21 01:23:23;;;;;;;0.30;0.30;;;9.00;99.90;;;;;;5027321;28;20078;-75
2021/05/21 01:25:49;;;;;;;0.28;0.28;;;9.00;99.90;;;;;;5027350;28;20101;-75
2021/05/21 01:28:17;;;;;;;0.43;0.30;;;9.00;99.90;;;;;;5027962;28;20074;-75
2021/05/21 01:30:43;;;;;;;0.40;0.30;;;9.00;99.90;;;;;;5021964;28;20093;-75
2021/05/21 01:33:11;;;;;;;0.30;0.20;;;8.90;99.90;;;;;;5030949;28;20082;-75
2021/05/21 01:35:39;;;;;;;0.60;0.52;;;9.00;99.90;;;;;;5031732;28;20169;-75
2021/05/21 01:38:05;;;;;;;0.50;0.40;;;8.90;99.90;;;;;;5020066;28;20442;-74
2021/05/21 01:40:33;;;;;;;0.63;0.50;;;8.80;99.90;;;;;;5028016;28;20100;-75
2021/05/21 01:43:01;;;;;;;1.40;0.40;;;8.90;99.90;;;;;;5011150;28;20135;-75
2021/05/21 01:45:27;;;;;;;0.63;0.40;;;8.90;99.90;;;;;;5024251;28;20456;-75
2021/05/21 01:47:53;;;;;;;0.88;0.50;;;8.80;99.90;;;;;;5031024;28;20073;-75
2021/05/21 01:50:19;;;;;;;1.00;0.30;;;8.90;99.90;;;;;;5029385;28;20180;-75
2021/05/21 01:52:45;;;;;;;1.10;0.38;;;8.80;99.90;;;;;;5029015;28;20124;-75
2021/05/21 01:55:14;;;;;;;0.50;0.30;;;8.90;99.90;;;;;;5029995;28;20093;-75
2021/05/21 01:57:40;;;;;;;0.60;0.30;;;8.70;99.90;;;;;;5027696;28;20089;-76
2021/05/21 02:00:08;;;;;;;0.32;0.30;;;8.70;99.90;;;;;;5026339;28;20093;-75
2021/05/21 02:02:33;;;;;;;0.57;0.40;;;8.50;99.90;;;;;;5028367;28;20078;-75
2021/05/21 02:04:59;;;;;;;1.45;0.40;;;8.40;99.90;;;;;;5038199;28;20086;-75
2021/05/21 02:07:25;;;;;;;0.40;0.30;;;8.50;99.90;;;;;;5029025;28;20105;-75
2021/05/21 02:10:02;;;;;;;0.32;0.30;;;8.50;99.90;;;;;;5027782;28;20101;-75
2021/05/21 02:12:30;;;;;;;0.50;0.32;;;8.50;99.90;;;;;;5027438;28;20077;-75
2021/05/21 02:14:58;;;;;;;0.55;0.20;;;8.40;99.90;;;;;;5028613;28;20725;-75
2021/05/21 02:17:25;;;;;;;0.88;0.20;;;8.30;99.90;;;;;;5029394;28;20201;-75
2021/05/21 02:19:51;;;;;;;0.70;0.30;;;8.20;99.90;;;;;;5027959;28;20102;-76
2021/05/21 02:22:19;;;;;;;1.30;0.30;;;8.30;99.90;;;;;;5029967;28;20085;-75
2021/05/21 02:24:45;;;;;;;0.60;0.22;;;8.20;99.90;;;;;;5029593;28;20101;-75
2021/05/21 02:27:11;;;;;;;0.85;0.40;;;8.20;99.90;;;;;;5028520;28;20107;-75
2021/05/21 02:29:38;;;;;;;0.57;0.40;;;8.10;99.90;;;;;;5026943;28;20104;-75
2021/05/21 02:32:04;;;;;;;0.40;0.25;;;8.00;99.90;;;;;;5025263;28;20102;-75
2021/05/21 02:34:30;;;;;;;0.38;0.30;;;8.10;99.90;;;;;;5022537;28;20155;-75
2021/05/21 02:36:55;;;;;;;0.50;0.30;;;8.20;99.90;;;;;;5028098;28;20509;-75
2021/05/21 02:39:21;;;;;;;10.13;1.10;;;8.20;99.90;;;;;;5027970;28;20155;-76
2021/05/21 02:41:47;;;;;;;1.48;0.30;;;8.30;99.90;;;;;;5025977;28;20093;-75
2021/05/21 02:44:13;;;;;;;0.43;0.20;;;8.30;99.90;;;;;;5029247;28;20181;-75
2021/05/21 02:46:38;;;;;;;0.47;0.20;;;8.30;99.90;;;;;;5026823;28;20097;-75
2021/05/21 02:49:04;;;;;;;0.60;0.30;;;8.40;99.90;;;;;;5025115;28;20188;-75
2021/05/21 02:51:29;;;;;;;3.00;0.30;;;8.30;99.90;;;;;;5016941;28;20070;-75
2021/05/21 02:53:55;;;;;;;0.50;0.28;;;8.30;99.90;;;;;;5029174;28;20114;-75
2021/05/21 02:56:20;;;;;;;0.30;0.20;;;8.20;99.90;;;;;;5028006;28;20078;-75
2021/05/21 02:58:46;;;;;;;1.67;0.38;;;8.30;99.90;;;;;;5028483;28;20131;-75
2021/05/21 03:01:11;;;;;;;0.30;0.20;;;8.30;99.90;;;;;;5028639;28;20062;-75
2021/05/21 03:03:37;;;;;;;1.45;0.30;;;8.40;99.90;;;;;;5028285;28;20478;-76
2021/05/21 03:06:03;;;;;;;0.88;0.30;;;8.50;99.90;;;;;;5029673;28;20098;-75
2021/05/21 03:08:28;;;;;;;0.73;0.28;;;8.50;99.90;;;;;;5027073;28;20080;-76
2021/05/21 03:10:54;;;;;;;0.55;0.30;;;8.50;99.90;;;;;;5026217;28;20078;-75
2021/05/21 03:13:20;;;;;;;0.65;0.32;;;8.40;99.90;;;;;;5025750;28;20081;-75
2021/05/21 03:15:46;;;;;;;0.63;0.30;;;8.40;99.90;;;;;;5028289;28;20078;-76
2021/05/21 03:18:23;;;;;;;0.82;0.30;;;8.40;99.90;;;;;;5028139;28;20550;-75
2021/05/21 03:20:52;;;;;;;0.20;0.20;;;8.40;99.90;;;;;;5040396;28;20151;-75
2021/05/21 03:23:18;;;;;;;2.42;0.20;;;8.40;99.90;;;;;;5026442;28;20136;-76
2021/05/21 03:25:44;;;;;;;0.35;0.30;;;8.40;99.90;;;;;;5040607;28;20101;-78
2021/05/21 03:28:11;;;;;;;0.30;0.20;;;8.30;99.90;;;;;;5027327;28;21443;-75
2021/05/21 03:30:40;;;;;;;0.28;0.28;;;8.50;99.90;;;;;;5025940;28;20090;-75
2021/05/21 03:33:06;;;;;;;1.60;0.30;;;8.50;99.90;;;;;;5028627;28;20157;-75
2021/05/21 03:35:35;;;;;;;1.08;0.60;;;8.60;99.90;;;;;;5026269;28;20074;-75
2021/05/21 03:38:02;;;;;;;0.50;0.40;;;8.70;99.90;;;;;;5026724;28;20716;-75
2021/05/21 03:40:28;;;;;;;1.00;0.30;;;8.70;99.90;;;;;;5017223;28;20093;-75
2021/05/21 03:42:54;;;;;;;0.95;0.43;;;8.80;99.90;;;;;;5028083;28;20535;-75
2021/05/21 03:45:19;;;;;;;2.50;0.47;;;8.80;99.90;;;;;;5027500;28;20143;-75
2021/05/21 03:47:45;;;;;;;1.67;0.32;;;8.80;99.90;;;;;;5027966;28;20086;-76
2021/05/21 03:50:12;;;;;;;0.20;0.20;;;8.80;99.90;;;;;;5021002;28;20089;-75
2021/05/21 03:52:38;;;;;;;2.85;0.40;;;8.80;99.90;;;;;;5027362;28;20549;-76
2021/05/21 03:55:04;;;;;;;0.35;0.30;;;8.80;99.90;;;;;;5028397;28;20085;-75
2021/05/21 03:57:30;;;;;;;1.08;0.30;;;8.90;99.90;;;;;;5026410;28;20082;-75
2021/05/21 03:59:56;;;;;;;0.63;0.30;;;8.90;99.90;;;;;;5019195;28;20105;-75
2021/05/21 04:02:22;;;;;;;1.20;0.35;;;8.90;99.90;;;;;;5028099;28;20553;-75
2021/05/21 04:04:48;;;;;;;0.80;0.30;;;8.80;99.90;;;;;;5036689;28;20101;-75
2021/05/21 04:07:13;;;;;;;0.32;0.20;;;8.90;99.90;;;;;;5026995;28;20168;-76
2021/05/21 04:09:39;;;;;;;0.10;0.10;;;8.90;99.90;;;;;;5025749;28;20094;-75
2021/05/21 04:12:05;;;;;;;1.85;0.25;;;8.90;99.90;;;;;;5039512;28;20066;-75
2021/05/21 04:14:30;;;;;;;0.82;0.32;;;8.80;99.90;;;;;;5026535;28;20109;-75
2021/05/21 04:16:56;;;;;;;0.30;0.20;;;8.80;99.90;;;;;;5023052;28;20089;-75
2021/05/21 04:19:21;;;;;;;0.45;0.30;;;8.80;99.90;;;;;;5022253;28;20225;-75
2021/05/21 04:21:47;;;;;;;1.75;0.20;;;8.80;99.90;;;;;;5026881;28;20078;-75
2021/05/21 04:24:13;;;;;;;0.47;0.20;;;8.80;99.90;;;;;;5029265;28;20089;-75
2021/05/21 04:26:38;;;;;;;0.50;0.30;;;8.80;99.90;;;;;;5027265;28;20081;-75
2021/05/21 04:29:04;;;;;;;0.73;0.20;;;8.90;99.90;;;;;;5025248;28;20253;-75
2021/05/21 04:31:30;;;;;;;0.20;0.20;;;8.90;99.90;;;;;;5026156;28;20080;-75
2021/05/21 04:33:55;;;;;;;0.20;0.20;;;9.00;99.90;;;;;;5029221;28;20124;-77
2021/05/21 04:36:21;;;;;;;0.43;0.20;;;9.00;99.90;;;;;;5027865;28;20105;-75
2021/05/21 04:38:47;;;;;;;0.25;0.20;;;9.00;99.90;;;;;;5025169;28;20085;-75
2021/05/21 04:41:13;;;;;;;2.05;0.30;;;9.20;99.90;;;;;;5027184;28;20093;-75
2021/05/21 04:43:39;;;;;;;0.45;0.20;;;9.30;99.90;;;;;;5026291;28;20151;-76
2021/05/21 04:46:05;;;;;;;0.82;0.30;;;9.40;99.90;;;;;;5025661;28;20100;-75
2021/05/21 04:48:30;;;;;;;0.82;0.30;;;9.40;99.90;;;;;;5026169;28;20154;-75
2021/05/21 04:50:57;;;;;;;0.20;0.10;;;9.40;99.90;;;;;;5026595;28;20526;-76
2021/05/21 04:53:26;;;;;;;0.20;0.20;;;9.50;99.90;;;;;;5027548;28;20442;-75
2021/05/21 04:55:52;;;;;;;0.40;0.28;;;9.50;99.90;;;;;;5026250;28;20074;-75
2021/05/21 04:58:18;;;;;;;1.08;0.20;;;9.60;99.90;;;;;;5026099;28;20519;-75
2021/05/21 05:00:44;;;;;;;0.30;0.20;;;9.70;99.90;;;;;;5025070;28;20102;-75
2021/05/21 05:03:13;;;;;;;1.85;0.30;;;9.80;99.90;;;;;;5028042;28;20116;-76
2021/05/21 05:05:39;;;;;;;0.95;0.52;;;9.80;99.90;;;;;;5030119;28;20177;-75
2021/05/21 05:08:05;;;;;;;0.32;0.20;;;9.80;99.90;;;;;;5031104;28;20753;-74
2021/05/21 05:10:31;;;;;;;0.30;0.20;;;9.80;99.90;;;;;;5021165;28;20160;-75
2021/05/21 05:12:56;;;;;;;0.50;0.25;;;9.90;99.90;;;;;;5029712;28;20542;-76
2021/05/21 05:15:22;;;;;;;0.70;0.20;;;9.90;99.90;;;;;;5023466;28;20153;-75
2021/05/21 05:17:50;;;;;;;0.60;0.30;;;9.90;99.90;;;;;;5027065;28;20081;-75
2021/05/21 05:20:16;;;;;;;1.15;0.50;;;10.00;99.90;;;;;;5019747;28;20094;-75
2021/05/21 05:22:42;;;;;;;0.45;0.32;;;10.00;99.90;;;;;;5032050;28;20160;-73
2021/05/21 05:25:09;;;;;;;0.40;0.30;;;10.00;99.90;;;;;;5031699;28;20077;-74
2021/05/21 05:27:35;;;;;;;0.20;0.20;;;10.10;99.90;;;;;;5031302;28;20066;-74
2021/05/21 05:30:03;;;;;;;4.78;0.63;;;10.10;99.90;;;;;;5029872;28;20106;-75
2021/05/21 05:32:28;;;;;;;4.32;0.40;;;10.20;99.90;;;;;;5015237;28;20082;-74
2021/05/21 05:34:54;;;;;;;1.85;0.20;;;10.20;99.90;;;;;;5031492;28;20100;-74
2021/05/21 05:37:19;;;;;;;0.88;0.30;;;10.30;99.90;;;;;;5031804;28;20078;-76
2021/05/21 05:39:45;;;;;;;0.82;0.30;;;10.30;99.90;;;;;;5032368;28;20173;-74
2021/05/21 05:42:10;;;;;;;4.50;0.65;;;10.60;99.90;;;;;;5027295;28;20082;-75
2021/05/21 05:44:36;;;;;;;0.47;0.35;;;10.70;99.90;;;;;;5035948;28;20090;-74
2021/05/21 05:47:02;;;;;;;1.65;0.40;;;10.70;99.90;;;;;;5028614;28;20713;-74
2021/05/21 05:49:27;;;;;;;0.80;0.40;;;10.80;99.90;;;;;;5042235;28;20101;-75
2021/05/21 05:51:53;;;;;;;1.27;0.28;;;10.90;99.90;;;;;;5028020;28;20199;-74
2021/05/21 05:54:18;;;;;;;5.93;0.50;;;11.10;99.90;;;;;;5031716;28;20460;-76
2021/05/21 05:56:44;;;;;;;1.88;0.30;;;11.30;99.90;;;;;;5031195;28;20074;-73
2021/05/21 05:59:10;;;;;;;1.95;0.30;;;11.50;99.90;;;;;;5031804;28;20094;-74
2021/05/21 06:01:35;;;;;;;0.40;0.20;;;11.70;99.90;;;;;;5031172;28;20066;-75
2021/05/21 06:04:01;;;;;;;2.80;0.50;;;11.90;99.90;;;;;;5030778;28;20070;-73
2021/05/21 06:06:26;;;;;;;1.33;0.20;;;11.90;99.90;;;;;;5025752;28;20100;-74
2021/05/21 06:08:52;;;;;;;2.78;0.28;;;11.90;99.90;;;;;;5013157;28;20086;-74
2021/05/21 06:11:18;;;;;;;0.73;0.40;;;11.90;99.90;;;;;;5017070;28;20074;-76
2021/05/21 06:13:43;;;;;;;0.40;0.20;;;11.90;99.90;;;;;;5021607;28;20117;-79
2021/05/21 06:16:09;;;;;;;1.85;1.00;;;11.90;99.90;;;;;;5024273;28;20085;-75
2021/05/21 06:18:34;;;;;;;1.00;0.30;;;11.90;99.90;;;;;;5024094;28;20673;-74
2021/05/21 06:21:00;;;;;;;0.60;0.22;;;12.00;99.90;;;;;;5025763;28;20074;-77
2021/05/21 06:23:26;;;;;;;0.40;0.30;;;12.30;99.90;;;;;;5026722;28;20339;-78
2021/05/21 06:25:58;;;;;;;0.30;0.20;;;12.40;99.90;;;;;;5021465;28;20177;-76
2021/05/21 06:28:26;;;;;;;0.98;0.20;;;12.40;99.90;;;;;;5025185;28;20066;-76
2021/05/21 06:30:52;;;;;;;0.68;0.40;;;12.40;99.90;;;;;;5036820;28;20098;-75
2021/05/21 06:33:18;;;;;;;1.92;0.22;;;12.60;99.90;;;;;;5027093;28;20124;-78
2021/05/21 06:35:45;;;;;;;0.52;0.30;;;12.70;99.90;;;;;;5020628;28;20070;-78
2021/05/21 06:38:11;;;;;;;1.85;0.20;;;12.90;99.90;;;;;;5029485;28;20085;-76
2021/05/21 06:40:37;;;;;;;0.95;0.35;;;13.00;99.90;;;;;;5034688;28;20647;-78
2021/05/21 06:43:15;;;;;;;0.50;0.20;;;13.00;99.90;;;;;;5027283;28;20181;-76
2021/05/21 06:45:41;;;;;;;0.93;0.40;;;13.10;99.90;;;;;;5026153;28;20090;-75
2021/05/21 06:48:07;;;;;;;0.50;0.20;;;13.30;99.90;;;;;;5012072;28;20098;-75
2021/05/21 06:50:33;;;;;;;1.73;0.45;;;13.20;99.90;;;;;;5023191;28;20130;-78
2021/05/21 06:52:59;;;;;;;2.20;0.40;;;13.20;99.90;;;;;;5028908;28;20070;-75
2021/05/21 06:55:25;;;;;;;0.65;0.20;;;13.30;99.90;;;;;;5029960;28;20109;-76
2021/05/21 06:57:50;;;;;;;0.63;0.30;;;13.40;99.90;;;;;;5030413;28;20147;-76
2021/05/21 07:00:17;;;;;;;0.65;0.22;;;13.60;99.90;;;;;;5018184;28;20181;-78
2021/05/21 07:02:43;;;;;;;0.40;0.20;;;13.70;99.90;;;;;;5021788;28;20117;-77
2021/05/21 07:05:10;;;;;;;0.25;0.15;;;13.90;99.90;;;;;;5026740;28;20147;-77
2021/05/21 07:07:35;;;;;;;0.40;0.22;;;13.80;99.90;;;;;;5030315;28;20160;-76
2021/05/21 07:10:01;;;;;;;0.95;0.20;;;14.00;99.90;;;;;;5028125;28;20252;-77
2021/05/21 07:12:27;;;;;;;1.00;0.32;;;14.00;99.90;;;;;;5031092;28;20070;-76
2021/05/21 07:14:53;;;;;;;0.45;0.20;;;14.00;99.90;;;;;;5019856;28;20454;-76
2021/05/21 07:17:18;;;;;;;3.47;0.22;;;14.10;99.90;;;;;;5028270;28;20161;-75
2021/05/21 07:19:44;;;;;;;0.40;0.40;;;14.00;99.90;;;;;;5029339;28;20090;-78
2021/05/21 07:22:10;;;;;;;1.17;0.40;;;14.00;99.90;;;;;;5035919;28;20070;-75
2021/05/21 07:24:36;;;;;;;0.30;0.10;;;14.10;99.90;;;;;;5031773;28;20449;-75
2021/05/21 07:27:02;;;;;;;0.45;0.20;;;14.20;99.90;;;;;;5027668;28;20090;-75
2021/05/21 07:29:27;;;;;;;2.25;0.65;;;14.30;99.90;;;;;;5028417;28;20101;-75
2021/05/21 07:31:53;;;;;;;1.02;0.28;;;14.40;99.90;;;;;;5027778;28;20078;-78
2021/05/21 07:34:19;;;;;;;0.55;0.40;;;14.50;99.90;;;;;;5029003;28;20489;-77
2021/05/21 07:36:45;;;;;;;1.13;0.40;;;14.40;99.90;;;;;;5030630;28;20115;-77
2021/05/21 07:39:11;;;;;;;1.40;0.40;;;14.30;99.90;;;;;;5026973;28;20089;-76
2021/05/21 07:41:36;;;;;;;1.00;0.20;;;14.30;99.90;;;;;;5030426;28;20074;-75
2021/05/21 07:44:02;;;;;;;0.82;0.40;;;14.30;99.90;;;;;;5029619;28;20082;-77
2021/05/21 07:46:28;;;;;;;0.50;0.20;;;14.40;99.90;;;;;;5029400;28;20098;-76
2021/05/21 07:48:54;;;;;;;0.35;0.20;;;14.40;99.90;;;;;;5028236;28;20133;-79
2021/05/21 07:51:20;;;;;;;0.93;0.50;;;14.50;99.90;;;;;;5023688;28;20070;-79
2021/05/21 07:53:47;;;;;;;0.82;0.32;;;14.80;99.90;;;;;;5024531;28;20079;-77
2021/05/21 07:56:13;;;;;;;0.85;0.43;;;14.80;99.90;;;;;;5028069;28;20090;-77
2021/05/21 07:58:40;;;;;;;0.63;0.38;;;14.90;99.90;;;;;;5028937;28;20082;-77
2021/05/21 08:01:05;;;;;;;1.70;1.05;;;14.80;99.90;;;;;;5027283;28;20169;-76
2021/05/21 08:03:31;;;;;;;0.60;0.40;;;14.70;99.90;;;;;;5027690;28;20169;-79
2021/05/21 08:05:58;;;;;;;0.98;0.30;;;14.90;99.90;;;;;;5027993;28;20094;-76
2021/05/21 08:08:25;;;;;;;0.60;0.30;;;14.90;99.90;;;;;;5029899;28;20112;-76
2021/05/21 08:10:51;;;;;;;0.60;0.40;;;15.10;99.90;;;;;;5025850;28;20959;-77
2021/05/21 08:13:17;;;;;;;0.47;0.35;;;15.20;99.90;;;;;;5029370;28;20286;-78
2021/05/21 08:15:44;;;;;;;0.55;0.30;;;15.20;99.90;;;;;;5016720;28;20172;-77
2021/05/21 08:18:10;;;;;;;0.60;0.15;;;15.30;99.90;;;;;;5025316;28;20161;-78
2021/05/21 08:20:36;;;;;;;2.63;0.25;;;15.60;99.90;;;;;;5011834;28;20094;-77
2021/05/21 08:23:01;;;;;;;0.60;0.22;;;15.30;99.90;;;;;;5029689;28;20074;-78
2021/05/21 08:25:27;;;;;;;0.82;0.50;;;15.50;99.90;;;;;;5025159;28;20129;-77
2021/05/21 08:27:53;;;;;;;1.63;0.43;;;15.50;99.90;;;;;;5028634;28;20157;-76
2021/05/21 08:30:20;;;;;;;1.08;0.40;;;15.60;99.90;;;;;;5028766;28;20942;-77
2021/05/21 08:32:49;;;;;;;0.95;0.13;;;15.60;99.90;;;;;;5028287;28;20070;-78
2021/05/21 08:35:16;;;;;;;1.27;0.20;;;15.70;99.90;;;;;;5027650;28;20096;-78
2021/05/21 08:37:42;;;;;;;0.65;0.50;;;15.80;99.90;;;;;;5027609;28;20117;-77
2021/05/21 08:40:08;;;;;;;0.77;0.35;;;15.70;99.90;;;;;;5028432;28;20132;-75
2021/05/21 08:42:41;;;;;;;0.57;0.20;;;16.00;99.90;;;;;;5029744;28;20069;-79
2021/05/21 08:45:13;;;;;;;1.63;0.30;;;15.90;99.90;;;;;;5025465;28;20457;-77
2021/05/21 08:47:39;;;;;;;1.10;0.20;;;15.90;99.90;;;;;;5026637;28;20542;-77
2021/05/21 08:50:07;;;;;;;0.50;0.20;;;16.00;99.90;;;;;;5028677;28;20099;-78
2021/05/21 08:52:33;;;;;;;1.13;0.40;;;16.20;99.90;;;;;;5028668;28;20124;-77
2021/05/21 08:54:59;;;;;;;0.75;0.10;;;16.30;99.90;;;;;;5025350;28;20500;-77
2021/05/21 08:57:25;;;;;;;0.80;0.20;;;16.30;98.90;;;;;;5028541;28;20525;-77
2021/05/21 08:59:50;;;;;;;0.93;0.35;;;16.30;99.90;;;;;;5028131;28;20094;-80
2021/05/21 09:02:25;;;;;;;0.80;0.30;;;16.20;99.90;;;;;;5035944;28;20748;-76
2021/05/21 09:04:58;;;;;;;2.22;0.40;;;16.10;99.90;;;;;;5025207;28;20094;-77
2021/05/21 09:07:25;;;;;;;2.17;0.40;;;16.00;99.90;;;;;;5019253;28;20070;-77
2021/05/21 09:09:51;;;;;;;0.63;0.30;;;15.90;99.90;;;;;;5029488;28;20081;-77
2021/05/21 09:12:20;;;;;;;1.90;0.40;;;15.90;99.90;;;;;;5030437;28;20078;-77
2021/05/21 09:15:15;;;;;;;1.98;0.30;;;15.70;99.80;;;;;;5027911;28;20079;-76
2021/05/21 09:17:56;;;;;;;1.23;0.40;;;15.80;99.90;;;;;;5028464;28;20078;-77
2021/05/21 09:20:33;;;;;;;1.50;0.30;;;15.60;99.90;;;;;;5029191;28;20140;-77
2021/05/21 09:23:01;;;;;;;2.38;0.55;;;15.60;98.80;;;;;;5029995;28;20157;-77
2021/05/21 09:25:48;;;;;;;1.42;0.28;;;15.40;99.90;;;;;;5030986;28;22035;-81
2021/05/21 09:28:32;;;;;;;1.25;0.38;;;15.20;99.90;;;;;;5026657;28;20120;-79
2021/05/21 09:31:12;;;;;;;2.58;0.32;;;15.00;99.90;;;;;;5026817;28;20080;-77
2021/05/21 09:33:49;;;;;;;0.95;0.70;;;14.90;99.90;;;;;;5028629;28;20074;-78
2021/05/21 09:36:31;;;;;;;0.50;0.13;;;14.90;99.90;;;;;;5025651;28;20069;-78
2021/05/21 09:38:58;;;;;;;0.75;0.20;;;14.90;99.90;;;;;;5020922;28;20082;-78
2021/05/21 09:41:27;;;;;;;1.50;0.20;;;14.90;99.90;;;;;;5024771;28;20069;-77
2021/05/21 09:43:55;;;;;;;0.70;0.30;;;14.90;99.90;;;;;;5040616;28;20074;-78
2021/05/21 09:46:21;;;;;;;0.47;0.20;;;15.00;99.90;;;;;;5010928;28;20091;-78
2021/05/21 09:48:48;;;;;;;0.68;0.10;;;15.00;99.90;;;;;;5022078;28;20165;-77
2021/05/21 09:51:14;;;;;;;0.15;0.10;;;15.00;99.90;;;;;;5028438;28;20074;-77
2021/05/21 09:53:40;;;;;;;1.63;0.22;;;15.10;99.90;;;;;;5030944;28;20105;-76
2021/05/21 09:56:16;;;;;;;1.40;0.20;;;15.30;99.90;;;;;;5024844;28;20102;-78
2021/05/21 09:58:43;;;;;;;0.30;0.20;;;15.40;99.90;;;;;;5033276;28;20081;-77
2021/05/21 10:01:09;;;;;;;2.45;0.20;;;15.60;99.90;;;;;;5031093;28;20574;-80
2021/05/21 10:03:35;;;;;;;1.48;0.20;;;15.60;99.90;;;;;;5029893;28;20837;-76
2021/05/21 10:06:02;;;;;;;2.22;0.28;;;15.60;99.90;;;;;;5023800;28;20187;-76
2021/05/21 10:08:29;;;;;;;0.73;0.20;;;15.60;99.90;;;;;;5028992;28;20066;-76
2021/05/21 10:10:55;;;;;;;0.40;0.10;;;15.70;99.90;;;;;;5030415;28;20097;-77
2021/05/21 10:13:21;;;;;;;0.65;0.20;;;15.70;99.90;;;;;;5035717;28;20065;-77
2021/05/21 10:15:51;;;;;;;0.70;0.10;;;15.90;99.90;;;;;;5021712;28;20104;-77
2021/05/21 10:18:17;;;;;;;0.40;0.25;;;16.10;99.90;;;;;;5032610;28;20128;-76
2021/05/21 10:20:44;;;;;;;1.25;0.20;;;16.10;99.90;;;;;;5030229;28;20700;-77
2021/05/21 10:23:16;;;;;;;0.80;0.30;;;16.10;99.90;;;;;;5033956;28;20074;-78
2021/05/21 10:25:43;;;;;;;4.78;0.32;;;16.10;99.90;;;;;;5026532;28;20513;-77
2021/05/21 10:28:09;;;;;;;3.38;0.60;;;15.90;99.90;;;;;;5031948;28;20074;-78
2021/05/21 10:30:35;;;;;;;0.50;0.20;;;15.80;99.90;;;;;;5031672;28;20093;-79
2021/05/21 10:33:22;;;;;;;2.10;0.30;;;15.90;99.90;;;;;;5037153;28;20075;-79
2021/05/21 10:35:48;;;;;;;0.40;0.20;;;15.90;99.90;;;;;;5026946;28;20109;-78
2021/05/21 10:38:25;;;;;;;0.52;0.22;;;16.00;99.90;;;;;;5042571;28;20446;-77
2021/05/21 10:41:16;;;;;;;0.35;0.17;;;15.90;99.90;;;;;;5031888;28;20121;-78
2021/05/21 10:43:53;;;;;;;0.35;0.20;;;15.80;99.90;;;;;;5049178;28;20480;-76
2021/05/21 10:46:20;;;;;;;0.40;0.25;;;15.70;99.90;;;;;;5017905;28;20607;-76
2021/05/21 10:48:50;;;;;;;0.38;0.15;;;15.70;99.90;;;;;;5029756;28;20220;-76
2021/05/21 10:51:16;;;;;;;1.70;0.60;;;15.60;99.90;;;;;;5028153;28;20433;-76
2021/05/21 10:53:43;;;;;;;0.47;0.25;;;15.70;99.90;;;;;;5028461;28;20070;-76
2021/05/21 10:56:10;;;;;;;0.88;0.20;;;15.60;99.90;;;;;;5027128;28;20449;-77
2021/05/21 10:58:44;;;;;;;3.50;0.75;;;15.60;99.90;;;;;;5044217;28;20080;-77
2021/05/21 11:01:12;;;;;;;0.73;0.30;;;15.60;99.90;;;;;;5031196;28;20080;-76
2021/05/21 11:04:01;;;;;;;1.02;0.50;;;15.60;99.90;;;;;;5027521;28;20089;-77
2021/05/21 11:06:29;;;;;;;1.50;0.52;;;15.60;99.90;;;;;;5028206;28;20126;-77
2021/05/21 11:09:00;;;;;;;2.08;0.65;;;15.60;99.90;;;;;;5022609;28;20101;-76
2021/05/21 11:11:58;;;;;;;1.88;0.80;;;15.50;99.90;;;;;;5026255;28;20840;-77
2021/05/21 11:14:36;;;;;;;1.42;0.68;;;15.50;99.90;;;;;;5027562;28;20720;-76
2021/05/21 11:17:10;;;;;;;3.45;0.63;;;15.40;99.90;;;;;;5028108;28;20350;-77
2021/05/21 11:19:36;;;;;;;3.20;0.73;;;15.40;99.90;;;;;;5025937;28;20082;-76
2021/05/21 11:22:06;;;;;;;0.70;0.50;;;15.40;99.90;;;;;;5029152;28;20093;-75
2021/05/21 11:24:41;;;;;;;3.33;0.45;;;15.40;99.90;;;;;;5029470;28;20062;-77
2021/05/21 11:27:08;;;;;;;2.47;0.35;;;15.40;99.90;;;;;;5029178;28;20085;-77
2021/05/21 11:29:35;;;;;;;1.23;0.30;;;15.40;99.90;;;;;;5030054;28;20484;-77
2021/05/21 11:32:01;;;;;;;1.15;0.30;;;15.30;99.90;;;;;;5031705;28;20157;-77
2021/05/21 11:34:28;;;;;;;0.95;0.30;;;15.30;99.90;;;;;;5030537;28;20148;-77
2021/05/21 11:36:56;;;;;;;1.30;0.20;;;15.30;99.90;;;;;;5024507;28;20089;-77
2021/05/21 11:39:25;;;;;;;0.63;0.30;;;15.20;99.90;;;;;;5029895;28;20490;-77
2021/05/21 11:41:51;;;;;;;1.23;0.30;;;15.10;99.90;;;;;;5029382;28;20101;-77
2021/05/21 11:44:18;;;;;;;0.32;0.17;;;15.00;99.90;;;;;;5030451;28;20077;-76
2021/05/21 11:46:44;;;;;;;1.90;0.40;;;14.90;99.90;;;;;;5028008;28;20073;-77
2021/05/21 11:49:22;;;;;;;1.08;0.40;;;14.80;99.90;;;;;;5029848;28;20167;-77
2021/05/21 11:52:03;;;;;;;1.67;0.50;;;14.70;99.90;;;;;;5029563;28;20106;-79
2021/05/21 11:54:30;;;;;;;2.00;0.60;;;14.50;99.90;;;;;;5048094;28;20543;-81
2021/05/21 11:56:58;;;;;;;1.10;0.38;;;14.40;99.90;;;;;;5027066;28;20069;-75
2021/05/21 11:59:24;;;;;;;1.67;0.30;;;14.40;99.90;;;;;;5048287;28;20097;-78
2021/05/21 12:02:02;;;;;;;2.05;0.50;;;14.40;99.90;;;;;;5027214;28;20077;-76
2021/05/21 12:04:33;;;;;;;0.82;0.40;;;14.20;99.90;;;;;;5013858;28;20073;-77
2021/05/21 12:06:58;;;;;;;2.13;0.30;;;14.10;99.90;;;;;;5027767;28;20588;-76
2021/05/21 12:09:25;;;;;;;0.80;0.30;;;14.00;99.90;;;;;;5026249;28;20102;-76
2021/05/21 12:11:52;;;;;;;1.02;0.40;;;14.00;99.90;;;;;;5041395;28;20442;-77
2021/05/21 12:14:20;;;;;;;2.05;1.50;;;14.10;99.90;;;;;;5027167;28;20169;-77
2021/05/21 12:16:48;;;;;;;0.95;0.45;;;14.00;99.90;;;;;;5027263;28;20152;-77
2021/05/21 12:19:14;;;;;;;0.77;0.40;;;13.90;99.90;;;;;;5024823;28;20152;-76
2021/05/21 12:21:41;;;;;;;2.42;0.60;;;13.90;99.90;;;;;;5024379;28;20484;-75
2021/05/21 12:24:08;;;;;;;2.03;0.65;;;14.00;99.90;;;;;;5029227;28;20066;-77
2021/05/21 12:26:36;;;;;;;1.48;0.47;;;14.10;99.90;;;;;;5018908;28;20094;-76
2021/05/21 12:29:06;;;;;;;3.97;0.85;;;14.10;99.90;;;;;;5028994;28;20155;-77
2021/05/21 12:31:36;;;;;;;0.95;0.50;;;14.10;99.90;;;;;;5027121;28;20062;-76
2021/05/21 12:34:02;;;;;;;1.10;0.30;;;14.10;99.90;;;;;;5026746;28;20446;-76
2021/05/21 12:36:30;;;;;;;1.23;0.30;;;14.10;99.90;;;;;;5023612;28;20132;-77
2021/05/21 12:38:59;;;;;;;1.15;0.15;;;14.00;99.90;;;;;;5022833;28;20110;-76
2021/05/21 12:41:33;;;;;;;0.20;0.20;;;14.00;99.90;;;;;;5026539;28;20517;-76
2021/05/21 12:44:16;;;;;;;0.20;0.20;;;13.90;99.90;;;;;;5028854;28;20613;-77
2021/05/21 12:46:49;;;;;;;2.92;0.20;;;13.90;99.90;;;;;;5025729;28;20098;-75
2021/05/21 12:49:27;;;;;;;0.43;0.20;;;13.80;99.90;;;;;;5025196;28;20094;-76
2021/05/21 12:51:56;;;;;;;2.22;0.20;;;13.80;99.90;;;;;;5029146;28;20081;-77